Time;durP1;ratioP1;P1;durP2;ratioP2;P2;SDS_P1;SDS_P2;PMS_P1;PMS_P2;Temp;Humidity;BMP_temperature;BMP_pressure;BME280_temperature;BME280_humidity;BME280_pressure;Samples;Min_cycle;Max_cycle;Signal;HPM_P1;HPM_P2
2022/03/03 00:01:56;;;;;;;23.63;16.13;;;1.90;99.90;;;;;;5013268;28;20026;-44
2022/03/03 00:04:21;;;;;;;26.40;14.75;;;1.90;99.90;;;;;;5014009;28;20500;-46
2022/03/03 00:06:47;;;;;;;34.47;16.95;;;1.90;99.90;;;;;;5014191;28;20034;-44
2022/03/03 00:09:12;;;;;;;28.30;15.98;;;1.90;99.90;;;;;;5012438;28;20026;-44
2022/03/03 00:11:38;;;;;;;32.38;16.92;;;1.80;99.90;;;;;;5014351;28;20026;-44
2022/03/03 00:14:04;;;;;;;26.02;16.25;;;1.70;99.90;;;;;;5013957;28;20030;-46
2022/03/03 00:16:29;;;;;;;34.90;16.50;;;1.60;99.90;;;;;;5013944;28;20037;-47
2022/03/03 00:18:55;;;;;;;25.05;15.55;;;1.50;99.90;;;;;;5013995;28;20033;-43
2022/03/03 00:21:21;;;;;;;28.52;15.95;;;1.50;99.90;;;;;;5013130;28;20037;-45
2022/03/03 00:23:46;;;;;;;24.33;14.65;;;1.30;99.90;;;;;;5012057;28;20025;-45
2022/03/03 00:26:12;;;;;;;28.25;16.90;;;1.40;99.90;;;;;;5014125;28;20018;-43
2022/03/03 00:28:37;;;;;;;27.15;16.88;;;1.30;99.90;;;;;;5013980;28;20097;-44
2022/03/03 00:31:03;;;;;;;26.65;16.52;;;1.20;99.90;;;;;;5013858;28;20025;-46
2022/03/03 00:33:29;;;;;;;27.02;15.70;;;1.20;99.90;;;;;;5013538;28;20029;-44
2022/03/03 00:35:54;;;;;;;29.42;17.35;;;1.10;99.90;;;;;;5013708;28;20068;-46
2022/03/03 00:38:20;;;;;;;29.48;17.00;;;1.00;99.90;;;;;;5013788;28;20088;-45
2022/03/03 00:40:45;;;;;;;24.50;15.32;;;1.00;99.90;;;;;;5013721;28;20030;-46
2022/03/03 00:43:12;;;;;;;26.08;16.75;;;1.00;99.90;;;;;;5013349;28;20037;-45
2022/03/03 00:45:38;;;;;;;23.17;17.00;;;1.00;99.90;;;;;;5013604;28;20018;-44
2022/03/03 00:48:04;;;;;;;24.60;15.80;;;1.00;99.90;;;;;;5013583;28;20083;-45
2022/03/03 00:50:30;;;;;;;27.08;17.08;;;1.00;99.90;;;;;;5013572;28;20022;-46
2022/03/03 00:52:56;;;;;;;28.92;16.38;;;1.00;99.90;;;;;;5012005;28;20547;-46
2022/03/03 00:55:22;;;;;;;23.77;16.85;;;1.10;99.90;;;;;;5013600;28;20026;-44
2022/03/03 00:57:48;;;;;;;25.27;17.25;;;1.00;99.90;;;;;;5013417;28;20053;-43
2022/03/03 01:00:14;;;;;;;29.20;17.23;;;1.00;99.90;;;;;;5013317;28;20021;-45
2022/03/03 01:02:39;;;;;;;24.98;16.13;;;1.00;99.90;;;;;;5013202;28;20029;-43
2022/03/03 01:05:06;;;;;;;27.30;17.30;;;0.90;99.90;;;;;;5012929;28;20072;-44
2022/03/03 01:07:32;;;;;;;27.60;17.20;;;0.90;99.90;;;;;;5013332;28;20062;-45
2022/03/03 01:09:58;;;;;;;30.95;18.90;;;0.90;99.90;;;;;;5013157;28;20034;-45
2022/03/03 01:12:23;;;;;;;32.60;17.98;;;0.90;99.90;;;;;;5013190;28;20029;-47
2022/03/03 01:14:49;;;;;;;30.05;18.48;;;0.80;99.90;;;;;;5011707;28;20444;-47
2022/03/03 01:17:15;;;;;;;29.55;18.05;;;0.80;99.90;;;;;;5011666;28;20037;-43
2022/03/03 01:19:41;;;;;;;29.92;17.02;;;0.80;99.90;;;;;;5013012;28;20030;-45
2022/03/03 01:22:07;;;;;;;30.10;18.52;;;0.80;99.90;;;;;;5013196;28;20610;-45
2022/03/03 01:24:33;;;;;;;30.75;18.13;;;1.00;99.90;;;;;;5011536;28;20031;-43
2022/03/03 01:26:59;;;;;;;28.23;16.50;;;1.00;99.90;;;;;;5013220;28;20018;-46
2022/03/03 01:29:24;;;;;;;27.52;17.25;;;0.90;99.90;;;;;;5012863;28;20022;-47
2022/03/03 01:31:50;;;;;;;33.70;16.50;;;0.90;99.90;;;;;;5012960;28;20392;-43
2022/03/03 01:34:15;;;;;;;26.77;16.95;;;1.00;99.90;;;;;;5012552;28;20032;-43
2022/03/03 01:36:41;;;;;;;30.00;18.25;;;1.00;99.90;;;;;;5011598;28;20441;-45
2022/03/03 01:39:07;;;;;;;28.35;17.73;;;1.00;99.90;;;;;;5012679;28;20029;-45
2022/03/03 01:41:34;;;;;;;25.95;16.60;;;1.10;99.90;;;;;;5012511;28;20486;-45
2022/03/03 01:43:59;;;;;;;24.90;16.73;;;1.20;99.90;;;;;;5012453;28;20478;-47
2022/03/03 01:46:25;;;;;;;32.63;17.70;;;1.10;99.90;;;;;;5012728;28;20084;-46
2022/03/03 01:48:51;;;;;;;27.48;18.15;;;1.10;99.90;;;;;;5013076;28;20034;-44
2022/03/03 01:51:16;;;;;;;29.48;17.85;;;1.10;99.90;;;;;;5011402;28;20026;-44
2022/03/03 01:53:42;;;;;;;26.67;18.45;;;1.10;99.90;;;;;;5012573;28;20065;-46
2022/03/03 01:56:08;;;;;;;29.92;16.65;;;1.10;99.90;;;;;;5012793;28;20045;-43
2022/03/03 01:58:33;;;;;;;30.83;17.15;;;1.00;99.90;;;;;;5011424;28;20030;-44
2022/03/03 02:00:59;;;;;;;25.92;16.88;;;1.00;99.90;;;;;;5012509;28;20026;-44
2022/03/03 02:03:25;;;;;;;25.63;16.70;;;0.90;99.90;;;;;;5012305;28;20496;-44
2022/03/03 02:05:50;;;;;;;33.63;17.65;;;0.90;99.90;;;;;;5012941;28;20025;-46
2022/03/03 02:08:16;;;;;;;28.92;17.30;;;0.90;99.90;;;;;;5012422;28;20033;-44
2022/03/03 02:10:42;;;;;;;30.20;17.67;;;0.90;99.90;;;;;;5012158;28;20026;-46
2022/03/03 02:13:07;;;;;;;28.98;18.05;;;0.80;99.90;;;;;;5012159;28;20088;-44
2022/03/03 02:15:33;;;;;;;27.90;17.00;;;0.70;99.90;;;;;;5012313;28;20112;-45
2022/03/03 02:17:59;;;;;;;27.45;16.85;;;0.70;99.90;;;;;;5010992;28;20038;-42
2022/03/03 02:20:30;;;;;;;28.67;17.65;;;0.70;99.90;;;;;;5012340;28;20022;-45
2022/03/03 02:22:58;;;;;;;29.08;16.60;;;0.70;99.90;;;;;;5011889;28;20458;-46
2022/03/03 02:25:25;;;;;;;28.05;17.05;;;0.70;99.90;;;;;;5012008;28;20022;-46
2022/03/03 02:27:51;;;;;;;32.38;17.48;;;0.70;99.90;;;;;;5011967;28;20457;-46
2022/03/03 02:30:18;;;;;;;30.05;17.83;;;0.70;99.90;;;;;;5011888;28;20029;-48
2022/03/03 02:32:45;;;;;;;25.92;17.02;;;0.70;99.90;;;;;;5011779;28;20021;-44
2022/03/03 02:35:11;;;;;;;29.38;17.63;;;0.60;99.90;;;;;;5011814;28;20114;-49
2022/03/03 02:37:42;;;;;;;27.20;16.65;;;0.50;99.90;;;;;;5010423;28;20084;-47
2022/03/03 02:40:10;;;;;;;32.38;17.40;;;0.50;99.90;;;;;;5010574;28;20048;-47
2022/03/03 02:42:36;;;;;;;25.42;16.23;;;0.50;99.90;;;;;;5011864;28;20044;-45
2022/03/03 02:45:02;;;;;;;27.52;17.05;;;0.40;99.90;;;;;;5012308;28;20409;-45
2022/03/03 02:47:28;;;;;;;25.95;16.73;;;0.40;99.90;;;;;;5015769;28;20018;-47
2022/03/03 02:49:54;;;;;;;28.92;16.08;;;0.40;99.90;;;;;;5015788;28;20441;-44
2022/03/03 02:52:19;;;;;;;28.50;17.73;;;0.40;99.90;;;;;;5015690;28;20097;-46
2022/03/03 02:54:45;;;;;;;25.48;16.63;;;0.40;99.90;;;;;;5014148;28;20030;-46
2022/03/03 02:59:55;;;;;;;33.50;18.02;;;0.60;99.90;;;;;;5015825;28;20029;-43
2022/03/03 03:02:20;;;;;;;27.33;17.50;;;0.60;99.90;;;;;;5015487;28;20022;-44
2022/03/03 03:04:46;;;;;;;25.30;17.48;;;0.40;99.90;;;;;;5015129;28;20034;-43
2022/03/03 03:07:11;;;;;;;28.67;17.60;;;0.30;99.90;;;;;;5015466;28;20040;-43
2022/03/03 03:09:37;;;;;;;29.48;17.13;;;0.30;99.90;;;;;;5014918;28;20029;-44
2022/03/03 03:12:03;;;;;;;35.25;17.15;;;0.30;99.90;;;;;;5015507;28;20490;-47
2022/03/03 03:14:28;;;;;;;31.67;17.70;;;0.40;99.90;;;;;;5015064;28;20032;-43
2022/03/03 03:16:54;;;;;;;29.48;17.25;;;0.30;99.90;;;;;;5014984;28;20120;-42
2022/03/03 03:19:20;;;;;;;28.00;16.55;;;0.30;99.90;;;;;;5015164;28;20030;-46
2022/03/03 03:21:46;;;;;;;29.10;17.02;;;0.20;99.90;;;;;;5015230;28;20080;-46
2022/03/03 03:24:12;;;;;;;29.90;17.60;;;0.10;99.90;;;;;;5013587;28;20030;-43
2022/03/03 03:26:37;;;;;;;30.90;17.33;;;0.10;99.90;;;;;;5015373;28;20018;-43
2022/03/03 03:29:03;;;;;;;27.77;17.27;;;0.00;99.90;;;;;;5015246;28;20026;-45
2022/03/03 03:31:28;;;;;;;35.50;16.95;;;0.00;99.90;;;;;;5014909;28;20022;-50
2022/03/03 03:33:54;;;;;;;29.77;18.17;;;0.00;99.90;;;;;;5014771;28;20026;-44
2022/03/03 03:36:20;;;;;;;31.20;18.80;;;0.10;99.90;;;;;;5014819;28;20030;-44
2022/03/03 03:38:45;;;;;;;23.48;15.82;;;0.20;99.90;;;;;;5014920;28;20072;-42
2022/03/03 03:41:12;;;;;;;29.17;17.25;;;0.30;99.90;;;;;;5013673;28;20125;-47
2022/03/03 03:43:37;;;;;;;31.17;16.27;;;0.40;99.90;;;;;;5014483;28;20066;-44
2022/03/03 03:46:03;;;;;;;26.17;16.77;;;0.40;99.90;;;;;;5013266;28;20022;-44
2022/03/03 03:48:28;;;;;;;28.55;16.90;;;0.40;99.90;;;;;;5013575;28;20018;-42
2022/03/03 03:50:54;;;;;;;30.98;17.42;;;0.30;99.90;;;;;;5014656;28;20106;-44
2022/03/03 03:53:19;;;;;;;34.25;18.75;;;0.30;99.90;;;;;;5013033;28;20183;-44
2022/03/03 03:55:45;;;;;;;28.45;16.77;;;0.20;99.90;;;;;;5014564;28;20436;-43
2022/03/03 03:58:11;;;;;;;26.65;16.05;;;0.20;99.90;;;;;;5014567;28;20075;-45
2022/03/03 04:00:36;;;;;;;28.77;16.90;;;0.30;99.90;;;;;;5014258;28;20482;-50
2022/03/03 04:03:02;;;;;;;30.25;17.40;;;0.30;99.90;;;;;;5014333;28;20175;-48
2022/03/03 04:05:27;;;;;;;27.67;19.17;;;0.30;99.90;;;;;;5014496;28;20022;-43
2022/03/03 04:07:53;;;;;;;30.38;17.80;;;0.30;99.90;;;;;;5014347;28;20026;-47
2022/03/03 04:10:18;;;;;;;32.03;18.02;;;0.10;99.90;;;;;;5013826;28;20030;-43
2022/03/03 04:12:44;;;;;;;37.17;17.55;;;0.10;99.90;;;;;;5014195;28;20069;-45
2022/03/03 04:15:10;;;;;;;29.70;17.83;;;0.00;99.90;;;;;;5014110;28;20465;-42
2022/03/03 04:17:36;;;;;;;31.67;17.80;;;0.00;99.90;;;;;;5015185;28;20288;-44
2022/03/03 04:20:03;;;;;;;31.95;18.23;;;-0.20;99.90;;;;;;5012901;28;20118;-46
2022/03/03 04:22:28;;;;;;;28.23;17.13;;;-0.10;99.90;;;;;;5014190;28;20028;-47
2022/03/03 04:24:54;;;;;;;26.90;17.60;;;-0.10;99.90;;;;;;5013787;28;20117;-43
2022/03/03 04:27:19;;;;;;;31.73;17.42;;;-0.20;99.90;;;;;;5013826;28;20022;-46
2022/03/03 04:29:45;;;;;;;33.90;19.50;;;-0.30;99.90;;;;;;5013859;28;20022;-45
2022/03/03 04:32:11;;;;;;;30.75;16.88;;;-0.30;99.90;;;;;;5012622;28;20022;-45
2022/03/03 04:34:36;;;;;;;28.13;16.52;;;-0.30;99.90;;;;;;5013676;28;20421;-43
2022/03/03 04:37:02;;;;;;;26.15;17.40;;;-0.30;99.90;;;;;;5012564;28;20034;-45
2022/03/03 04:39:27;;;;;;;31.00;17.95;;;-0.40;99.90;;;;;;5014015;28;20022;-44
2022/03/03 04:41:53;;;;;;;29.67;17.25;;;-0.30;99.90;;;;;;5014431;28;20060;-46
2022/03/03 04:44:19;;;;;;;30.75;18.42;;;-0.40;99.90;;;;;;5013347;28;20026;-47
2022/03/03 04:46:44;;;;;;;33.42;18.83;;;-0.40;99.90;;;;;;5014924;28;20058;-46
2022/03/03 04:49:10;;;;;;;30.55;17.88;;;-0.40;99.90;;;;;;5013676;28;20033;-45
2022/03/03 04:51:36;;;;;;;32.65;18.13;;;-0.40;99.90;;;;;;5013671;28;20033;-44
2022/03/03 04:54:04;;;;;;;32.97;16.92;;;-0.40;99.90;;;;;;5013427;28;20112;-45
2022/03/03 04:56:30;;;;;;;29.13;18.55;;;-0.40;99.90;;;;;;5013471;28;20453;-43
2022/03/03 04:58:55;;;;;;;37.45;19.63;;;-0.40;99.90;;;;;;5013367;28;20030;-46
2022/03/03 05:01:21;;;;;;;32.25;17.48;;;-0.30;99.90;;;;;;5013757;28;20025;-44
2022/03/03 05:03:46;;;;;;;29.00;16.55;;;-0.30;99.90;;;;;;5013083;28;20500;-43
2022/03/03 05:06:12;;;;;;;29.33;18.00;;;-0.20;99.90;;;;;;5013581;28;20102;-44
2022/03/03 05:08:37;;;;;;;25.00;16.98;;;-0.20;99.90;;;;;;5012451;28;20018;-43
2022/03/03 05:11:03;;;;;;;33.17;16.33;;;-0.10;99.90;;;;;;5013480;28;20084;-43
2022/03/03 05:13:29;;;;;;;33.83;18.33;;;-0.10;99.90;;;;;;5013157;28;20038;-43
2022/03/03 05:15:55;;;;;;;33.38;16.92;;;-0.10;99.90;;;;;;5012884;28;20477;-44
2022/03/03 05:18:20;;;;;;;26.80;17.10;;;0.00;99.90;;;;;;5012319;28;20556;-48
2022/03/03 05:20:46;;;;;;;28.38;17.73;;;0.10;99.90;;;;;;5012602;28;20034;-46
2022/03/03 05:23:11;;;;;;;31.02;18.10;;;0.10;99.90;;;;;;5010403;28;20482;-45
2022/03/03 05:25:37;;;;;;;28.15;17.98;;;0.10;99.90;;;;;;5012174;28;20048;-43
2022/03/03 05:28:03;;;;;;;27.50;18.15;;;0.10;99.90;;;;;;5012625;28;20026;-43
2022/03/03 05:30:29;;;;;;;24.70;17.42;;;0.10;99.90;;;;;;5012562;28;20049;-42
2022/03/03 05:32:54;;;;;;;28.48;16.77;;;-0.10;99.90;;;;;;5012090;28;20025;-43
2022/03/03 05:35:21;;;;;;;26.58;17.50;;;-0.10;99.90;;;;;;5012616;28;20026;-45
2022/03/03 05:37:47;;;;;;;30.80;18.67;;;-0.10;99.90;;;;;;5011956;28;20032;-44
2022/03/03 05:40:12;;;;;;;27.00;17.10;;;-0.30;99.90;;;;;;5011964;28;20022;-47
2022/03/03 05:42:39;;;;;;;26.58;17.38;;;-0.30;99.90;;;;;;5011657;28;20454;-45
2022/03/03 05:45:05;;;;;;;26.52;17.30;;;-0.40;99.90;;;;;;5011515;28;20042;-44
2022/03/03 05:47:30;;;;;;;30.23;16.40;;;-0.50;99.90;;;;;;5010349;28;20026;-46
2022/03/03 05:49:57;;;;;;;27.80;17.35;;;-0.50;99.90;;;;;;5011587;28;20036;-45
2022/03/03 05:52:22;;;;;;;29.75;17.08;;;-0.50;99.90;;;;;;5011599;28;20141;-43
2022/03/03 05:54:48;;;;;;;28.67;17.88;;;-0.40;99.90;;;;;;5011456;28;20082;-47
2022/03/03 05:57:35;;;;;;;31.70;18.77;;;-0.50;99.90;;;;;;5011397;28;20034;-43
2022/03/03 06:00:15;;;;;;;31.08;16.85;;;-0.40;99.90;;;;;;5011507;28;20026;-48
2022/03/03 06:02:53;;;;;;;35.22;17.73;;;-0.30;99.90;;;;;;5011361;28;20026;-45
2022/03/03 06:05:22;;;;;;;32.80;18.63;;;-0.30;99.90;;;;;;4993963;28;20026;-45
2022/03/03 06:07:52;;;;;;;33.42;19.00;;;-0.40;99.90;;;;;;5009946;28;20022;-43
2022/03/03 06:10:22;;;;;;;35.58;18.70;;;-0.40;99.90;;;;;;5009605;28;20156;-44
2022/03/03 06:12:51;;;;;;;36.17;19.63;;;-0.40;99.90;;;;;;5011109;28;20026;-45
2022/03/03 06:15:18;;;;;;;37.53;20.30;;;-0.40;99.90;;;;;;5011362;28;20080;-45
2022/03/03 06:17:44;;;;;;;34.95;18.20;;;-0.40;99.90;;;;;;4975553;28;1016871;-46
2022/03/03 06:20:11;;;;;;;36.28;18.92;;;-0.50;99.90;;;;;;5011885;28;20022;-42
2022/03/03 06:22:37;;;;;;;34.42;18.20;;;-0.50;99.90;;;;;;5011761;28;20036;-44
2022/03/03 06:25:05;;;;;;;36.63;18.17;;;-0.50;99.90;;;;;;5011573;28;20030;-45
2022/03/03 06:27:32;;;;;;;27.52;17.42;;;-0.50;99.90;;;;;;5011689;28;20393;-43
2022/03/03 06:29:58;;;;;;;32.50;19.02;;;-0.40;99.90;;;;;;5011908;28;20018;-43
2022/03/03 06:32:23;;;;;;;32.30;19.05;;;-0.40;99.90;;;;;;5011757;28;20500;-44
2022/03/03 06:34:49;;;;;;;33.08;18.38;;;-0.40;99.90;;;;;;5011903;28;20058;-46
2022/03/03 06:37:15;;;;;;;36.85;19.27;;;-0.40;99.90;;;;;;5011670;28;20116;-43
2022/03/03 06:39:41;;;;;;;26.80;17.90;;;-0.30;99.90;;;;;;5011588;28;20075;-43
2022/03/03 06:42:07;;;;;;;33.40;20.13;;;-0.30;99.90;;;;;;5011622;28;20034;-43
2022/03/03 06:44:33;;;;;;;29.90;17.30;;;-0.10;99.90;;;;;;5011328;28;20022;-43
2022/03/03 06:46:59;;;;;;;30.77;17.40;;;-0.10;99.90;;;;;;5011914;28;20030;-44
2022/03/03 06:49:24;;;;;;;26.15;17.67;;;-0.10;99.90;;;;;;5011548;28;20030;-44
2022/03/03 06:51:54;;;;;;;30.67;18.48;;;-0.20;99.90;;;;;;5010354;28;20449;-44
2022/03/03 06:54:21;;;;;;;29.13;17.77;;;-0.30;99.90;;;;;;5011339;28;20062;-47
2022/03/03 06:56:55;;;;;;;29.95;19.00;;;-0.30;99.90;;;;;;5011549;28;20026;-43
2022/03/03 06:59:26;;;;;;;35.85;19.10;;;-0.40;99.90;;;;;;5011786;28;20109;-44
2022/03/03 07:01:54;;;;;;;27.35;18.10;;;-0.50;99.90;;;;;;5011809;28;20029;-44
2022/03/03 07:04:20;;;;;;;34.28;18.50;;;-0.50;99.90;;;;;;5011514;28;20448;-44
2022/03/03 07:06:47;;;;;;;29.48;18.33;;;-0.60;99.90;;;;;;5011395;28;20025;-43
2022/03/03 07:09:13;;;;;;;32.30;19.13;;;-0.70;99.90;;;;;;5011333;28;20026;-42
2022/03/03 07:11:41;;;;;;;25.58;16.75;;;-0.60;99.90;;;;;;5011666;28;20482;-44
2022/03/03 07:14:08;;;;;;;33.40;18.67;;;-0.50;99.90;;;;;;5010099;28;20468;-44
2022/03/03 07:16:41;;;;;;;39.78;19.30;;;-0.40;99.90;;;;;;5011238;28;20041;-44
2022/03/03 07:19:20;;;;;;;28.35;16.92;;;-0.30;99.90;;;;;;5011356;28;20037;-45
2022/03/03 07:22:14;;;;;;;35.17;19.00;;;-0.10;99.90;;;;;;5011439;28;20061;-42
2022/03/03 07:24:45;;;;;;;32.67;17.10;;;0.10;99.90;;;;;;5007676;28;20502;-45
2022/03/03 07:27:21;;;;;;;29.35;17.55;;;0.60;99.90;;;;;;5009551;28;20080;-48
2022/03/03 07:30:08;;;;;;;35.55;17.45;;;1.00;99.90;;;;;;5010810;28;20034;-44
2022/03/03 07:32:47;;;;;;;22.25;15.60;;;1.70;99.90;;;;;;5034809;28;20026;-44
2022/03/03 07:35:15;;;;;;;22.83;14.65;;;2.40;99.90;;;;;;5006983;28;20057;-43
2022/03/03 07:37:52;;;;;;;25.73;16.83;;;3.00;99.90;;;;;;4995137;28;20090;-43
2022/03/03 07:40:18;;;;;;;26.65;16.58;;;3.60;99.90;;;;;;5010452;28;20513;-42
2022/03/03 07:42:45;;;;;;;28.38;16.17;;;4.30;98.60;;;;;;5008915;28;20038;-41
2022/03/03 07:45:10;;;;;;;23.92;15.98;;;4.60;97.50;;;;;;5007229;28;20033;-46
2022/03/03 07:47:36;;;;;;;32.05;17.25;;;4.10;97.80;;;;;;4993852;28;20030;-62
2022/03/03 07:50:03;;;;;;;25.85;15.32;;;3.60;98.60;;;;;;4995114;28;20054;-58
2022/03/03 07:52:29;;;;;;;24.15;16.45;;;2.80;99.80;;;;;;5008183;28;20030;-55
2022/03/03 07:54:54;;;;;;;23.35;15.73;;;2.20;99.90;;;;;;5013746;28;20022;-52
2022/03/03 07:57:22;;;;;;;28.92;16.50;;;1.90;99.90;;;;;;5021390;28;20124;-59
2022/03/03 07:59:53;;;;;;;25.58;15.90;;;1.80;99.90;;;;;;5029362;28;20018;-50
2022/03/03 08:02:23;;;;;;;23.42;16.33;;;1.70;99.90;;;;;;5014535;28;20079;-53
2022/03/03 08:04:51;;;;;;;23.98;15.63;;;1.70;99.90;;;;;;5014160;28;20045;-52
2022/03/03 08:07:17;;;;;;;26.58;17.27;;;1.60;99.90;;;;;;5013221;28;20018;-52
2022/03/03 08:09:46;;;;;;;25.63;15.10;;;1.70;99.90;;;;;;5013086;28;20026;-54
2022/03/03 08:12:15;;;;;;;25.92;14.75;;;1.70;99.90;;;;;;5014477;28;20061;-51
2022/03/03 08:14:41;;;;;;;25.98;15.52;;;1.80;99.90;;;;;;5014280;28;20080;-55
2022/03/03 08:17:08;;;;;;;25.30;14.82;;;1.80;99.90;;;;;;5012929;28;20037;-55
2022/03/03 08:19:34;;;;;;;26.27;15.52;;;1.80;99.90;;;;;;5014201;28;20026;-53
2022/03/03 08:22:00;;;;;;;27.40;15.40;;;1.90;99.90;;;;;;5014169;28;20108;-60
2022/03/03 08:24:26;;;;;;;21.45;14.75;;;1.90;99.90;;;;;;5011149;28;20541;-46
2022/03/03 08:26:55;;;;;;;26.10;15.60;;;2.00;99.90;;;;;;5009985;28;20024;-46
2022/03/03 08:29:21;;;;;;;22.95;14.57;;;2.10;99.90;;;;;;5013658;28;20096;-44
2022/03/03 08:31:53;;;;;;;33.53;15.13;;;2.10;99.90;;;;;;5012288;28;20172;-45
2022/03/03 08:34:42;;;;;;;33.53;15.10;;;2.20;99.90;;;;;;5012954;28;20053;-44
2022/03/03 08:37:13;;;;;;;28.27;16.23;;;2.20;99.90;;;;;;4993208;28;20113;-46
2022/03/03 08:39:40;;;;;;;24.88;14.68;;;2.40;99.90;;;;;;5021904;28;20544;-43
2022/03/03 08:42:12;;;;;;;23.15;14.50;;;2.40;99.90;;;;;;5013596;28;20097;-45
2022/03/03 08:44:40;;;;;;;26.95;14.55;;;2.40;99.90;;;;;;5012964;28;20458;-48
2022/03/03 08:47:06;;;;;;;27.38;14.43;;;2.40;99.90;;;;;;5013437;28;20068;-48
2022/03/03 08:49:39;;;;;;;27.55;14.32;;;2.50;99.90;;;;;;5014092;28;20021;-54
2022/03/03 08:52:07;;;;;;;20.90;14.40;;;2.50;99.90;;;;;;5010886;28;20546;-49
2022/03/03 08:54:33;;;;;;;24.65;13.68;;;2.60;99.90;;;;;;5001959;28;20033;-59
2022/03/03 08:56:59;;;;;;;21.70;13.15;;;2.70;99.90;;;;;;5001109;28;20030;-48
2022/03/03 08:59:25;;;;;;;22.15;12.40;;;2.70;99.90;;;;;;4994280;28;20102;-47
2022/03/03 09:01:51;;;;;;;24.75;14.18;;;2.80;99.90;;;;;;5010843;28;20022;-48
2022/03/03 09:04:18;;;;;;;26.13;13.30;;;2.80;99.90;;;;;;5005093;28;20030;-50
2022/03/03 09:06:45;;;;;;;22.95;13.32;;;3.00;99.90;;;;;;5013592;28;20057;-48
2022/03/03 09:09:11;;;;;;;21.33;12.98;;;3.10;99.50;;;;;;5009208;28;20031;-55
2022/03/03 09:11:38;;;;;;;23.20;14.20;;;3.20;99.70;;;;;;5011797;28;20073;-54
2022/03/03 09:14:04;;;;;;;25.17;15.25;;;3.30;98.70;;;;;;4997133;28;20027;-47
2022/03/03 09:16:30;;;;;;;21.13;13.45;;;3.40;98.50;;;;;;4996016;28;20041;-48
2022/03/03 09:18:56;;;;;;;19.13;12.13;;;3.60;98.20;;;;;;5013326;28;20048;-47
2022/03/03 09:21:21;;;;;;;23.13;14.48;;;3.60;97.70;;;;;;5000717;28;20370;-48
2022/03/03 09:23:47;;;;;;;18.35;12.73;;;3.60;97.90;;;;;;5011668;28;20034;-46
2022/03/03 09:26:12;;;;;;;20.58;13.57;;;3.70;97.80;;;;;;5012319;28;20417;-45
2022/03/03 09:28:38;;;;;;;20.45;12.52;;;3.80;97.60;;;;;;5012665;28;20037;-49
2022/03/03 09:31:04;;;;;;;20.00;13.57;;;4.00;96.60;;;;;;5012980;28;20045;-44
2022/03/03 09:33:29;;;;;;;20.88;13.75;;;4.30;96.50;;;;;;5012802;28;20026;-44
2022/03/03 09:35:55;;;;;;;19.05;14.00;;;5.50;95.30;;;;;;5011797;28;20026;-47
2022/03/03 09:38:21;;;;;;;19.70;13.13;;;6.90;90.30;;;;;;5013607;28;20061;-49
2022/03/03 09:40:48;;;;;;;23.38;13.25;;;8.00;84.90;;;;;;5013338;28;20101;-47
2022/03/03 09:43:14;;;;;;;20.20;12.02;;;8.90;79.30;;;;;;5012523;28;20026;-51
2022/03/03 09:45:40;;;;;;;21.30;12.95;;;10.00;74.50;;;;;;5013187;28;20593;-48
2022/03/03 09:48:07;;;;;;;23.98;13.63;;;10.90;70.40;;;;;;5013445;28;20030;-48
2022/03/03 09:50:36;;;;;;;18.27;13.05;;;11.50;68.40;;;;;;5013132;28;20144;-47
2022/03/03 09:53:09;;;;;;;16.35;11.98;;;11.70;64.60;;;;;;5012189;28;20029;-47
2022/03/03 09:55:37;;;;;;;19.77;12.07;;;11.80;64.90;;;;;;5011629;28;20049;-48
2022/03/03 09:58:03;;;;;;;19.00;11.65;;;12.00;64.40;;;;;;5013158;28;20069;-48
2022/03/03 10:00:33;;;;;;;17.67;12.05;;;12.20;63.30;;;;;;5013222;28;20060;-51
2022/03/03 10:03:08;;;;;;;15.85;12.52;;;12.80;61.80;;;;;;5012917;28;20087;-48
2022/03/03 10:05:42;;;;;;;22.20;12.18;;;12.50;61.40;;;;;;5013012;28;20496;-46
2022/03/03 10:08:10;;;;;;;21.38;13.10;;;12.50;60.90;;;;;;5012828;28;20034;-47
2022/03/03 10:10:39;;;;;;;19.27;12.55;;;12.00;61.40;;;;;;5012918;28;20033;-48
2022/03/03 10:13:05;;;;;;;19.85;13.50;;;11.80;61.90;;;;;;5012630;28;20456;-48
2022/03/03 10:15:32;;;;;;;17.25;12.68;;;11.20;62.30;;;;;;5011309;28;20030;-48
2022/03/03 10:18:11;;;;;;;16.95;12.63;;;11.10;63.20;;;;;;5033817;22;20049;-45
2022/03/03 10:20:45;;;;;;;16.65;11.32;;;11.10;62.70;;;;;;5008536;28;20506;-43
2022/03/03 10:23:11;;;;;;;25.48;12.60;;;11.20;62.30;;;;;;4999167;28;20081;-46
2022/03/03 10:25:40;;;;;;;14.90;11.73;;;11.10;61.70;;;;;;5012471;28;20136;-46
2022/03/03 10:28:11;;;;;;;19.88;13.40;;;11.00;62.10;;;;;;5012180;28;20393;-45
2022/03/03 10:30:59;;;;;;;21.23;13.07;;;10.70;62.10;;;;;;5009165;28;20118;-46
2022/03/03 10:33:30;;;;;;;18.67;12.65;;;10.50;63.10;;;;;;5001967;28;20072;-45
2022/03/03 10:36:14;;;;;;;23.90;11.93;;;10.40;64.00;;;;;;5011878;28;20097;-48
2022/03/03 10:38:44;;;;;;;18.80;13.07;;;10.40;63.90;;;;;;5012262;28;20026;-50
2022/03/03 10:41:26;;;;;;;20.48;13.23;;;10.30;63.80;;;;;;5012259;28;20037;-47
2022/03/03 10:43:51;;;;;;;22.17;12.20;;;10.30;64.30;;;;;;5010995;28;20029;-45
2022/03/03 10:46:17;;;;;;;18.15;11.55;;;10.10;63.00;;;;;;5008607;28;20450;-45
2022/03/03 10:48:42;;;;;;;20.23;12.65;;;10.20;64.00;;;;;;5002035;28;20088;-46
2022/03/03 10:51:11;;;;;;;19.63;13.20;;;10.20;63.30;;;;;;5010312;28;20026;-45
2022/03/03 10:53:36;;;;;;;17.40;12.23;;;9.90;63.80;;;;;;5004507;28;20620;-46
2022/03/03 10:56:12;;;;;;;18.38;13.00;;;9.40;64.20;;;;;;4999019;28;20105;-46
2022/03/03 10:58:44;;;;;;;;;;;9.10;65.20;;;;;;5012277;28;20022;-48
2022/03/03 11:01:10;;;;;;;17.35;12.75;;;8.90;66.10;;;;;;4998077;28;19909;-46
2022/03/03 11:03:36;;;;;;;19.73;11.88;;;9.00;67.20;;;;;;4995594;28;20041;-49
2022/03/03 11:06:03;;;;;;;20.10;12.55;;;8.90;64.50;;;;;;5012251;28;20379;-44
2022/03/03 11:08:29;;;;;;;17.20;11.35;;;8.80;63.90;;;;;;5015666;28;20022;-44
2022/03/03 11:10:55;;;;;;;14.65;11.20;;;8.70;64.30;;;;;;5010829;28;20044;-43
2022/03/03 11:13:22;;;;;;;18.90;13.27;;;8.80;65.40;;;;;;5002749;28;20382;-48
2022/03/03 11:15:48;;;;;;;36.08;21.80;;;8.90;65.60;;;;;;5013559;28;20057;-56
2022/03/03 11:18:18;;;;;;;16.27;11.55;;;9.00;65.40;;;;;;5014095;28;20309;-45
2022/03/03 11:20:46;;;;;;;18.98;12.45;;;9.10;64.00;;;;;;5014861;28;20286;-45
2022/03/03 11:23:11;;;;;;;16.13;11.43;;;9.00;64.90;;;;;;5014822;28;20030;-50
2022/03/03 11:25:38;;;;;;;19.13;11.80;;;9.10;63.80;;;;;;5014762;28;20040;-47
2022/03/03 11:28:05;;;;;;;17.55;12.05;;;8.90;63.20;;;;;;5013585;28;20077;-47
2022/03/03 11:30:32;;;;;;;18.80;11.20;;;9.00;64.60;;;;;;5015032;28;20555;-47
2022/03/03 11:33:27;;;;;;;18.67;11.48;;;9.00;63.80;;;;;;5013229;28;20041;-49
2022/03/03 11:35:58;;;;;;;14.95;10.65;;;9.00;63.10;;;;;;5013245;28;20037;-45
2022/03/03 11:38:28;;;;;;;18.17;11.70;;;9.10;63.50;;;;;;5013624;28;20088;-49
2022/03/03 11:40:59;;;;;;;17.55;11.73;;;9.10;63.20;;;;;;5014476;28;20038;-43
2022/03/03 11:43:26;;;;;;;19.73;11.98;;;9.10;64.50;;;;;;5014225;28;20109;-46
2022/03/03 11:45:54;;;;;;;20.17;11.68;;;9.00;62.50;;;;;;5013513;28;20574;-47
2022/03/03 11:48:22;;;;;;;15.57;11.40;;;9.00;62.80;;;;;;5014682;28;20014;-44
2022/03/03 11:50:49;;;;;;;19.23;11.35;;;9.10;62.90;;;;;;5012293;28;20021;-51
2022/03/03 11:53:24;;;;;;;17.98;11.40;;;9.10;63.20;;;;;;5014093;28;20029;-45
2022/03/03 11:56:03;;;;;;;16.52;11.07;;;9.10;62.50;;;;;;5010873;28;20022;-49
2022/03/03 11:58:31;;;;;;;18.55;11.20;;;9.10;63.00;;;;;;5014677;28;20029;-49
2022/03/03 12:01:05;;;;;;;20.45;11.63;;;9.10;62.70;;;;;;5013250;28;20155;-46
2022/03/03 12:03:50;;;;;;;17.70;11.70;;;9.10;62.40;;;;;;5014098;28;20026;-45
2022/03/03 12:06:15;;;;;;;16.75;11.35;;;9.10;62.90;;;;;;5000203;28;20018;-45
2022/03/03 12:08:42;;;;;;;21.88;12.38;;;9.20;63.30;;;;;;4999714;28;20034;-46
2022/03/03 12:11:15;;;;;;;16.55;10.40;;;9.20;62.20;;;;;;5014194;28;20083;-49
2022/03/03 12:13:41;;;;;;;13.90;10.50;;;9.20;62.10;;;;;;5012704;28;20038;-48
2022/03/03 12:16:20;;;;;;;14.45;9.68;;;9.30;61.50;;;;;;5010999;28;20393;-45
2022/03/03 12:18:54;;;;;;;14.43;10.45;;;9.30;58.70;;;;;;5012418;28;20443;-47
2022/03/03 12:21:33;;;;;;;20.17;11.00;;;9.20;59.00;;;;;;5015565;28;20556;-47
2022/03/03 12:24:14;;;;;;;13.00;9.43;;;9.40;59.10;;;;;;5014069;28;20065;-45
2022/03/03 12:26:52;;;;;;;16.67;10.20;;;9.40;55.80;;;;;;5014369;28;20026;-50
2022/03/03 12:29:35;;;;;;;12.30;9.15;;;9.30;56.70;;;;;;5014305;28;20263;-44
2022/03/03 12:32:32;;;;;;;13.10;9.55;;;9.30;57.40;;;;;;5012704;28;20026;-45
2022/03/03 12:35:09;;;;;;;15.23;8.85;;;9.40;56.80;;;;;;5010134;28;20022;-45
2022/03/03 12:37:40;;;;;;;13.65;9.32;;;9.50;57.50;;;;;;5022912;28;20026;-52
2022/03/03 12:40:06;;;;;;;18.55;9.73;;;9.50;57.50;;;;;;5013660;28;20052;-45